Time;durP1;ratioP1;P1;durP2;ratioP2;P2;SDS_P1;SDS_P2;PMS_P1;PMS_P2;Temp;Humidity;BMP_temperature;BMP_pressure;BME280_temperature;BME280_humidity;BME280_pressure;Samples;Min_cycle;Max_cycle;Signal;HPM_P1;HPM_P2
2021/01/09 00:00:48;;;;;;;;;;;9.50;52.90;;;;;;2123914;27;20090;-76
2021/01/09 00:01:50;;;;;;;;;;;9.50;54.00;;;;;;2123787;27;19990;-71
2021/01/09 00:02:52;;;;;;;;;;;9.60;54.90;;;;;;2114604;28;19931;-72
2021/01/09 00:03:53;;;;;;;;;;;9.50;53.60;;;;;;2114521;28;20376;-73
2021/01/09 00:04:55;;;;;;;;;;;9.50;54.40;;;;;;2123589;27;20264;-70
2021/01/09 00:05:56;;;;;;;;;;;9.50;54.30;;;;;;2118810;27;20150;-71
2021/01/09 00:06:58;;;;;;;;;;;9.40;54.20;;;;;;2123785;27;19924;-77
2021/01/09 00:07:59;;;;;;;;;;;9.40;54.40;;;;;;2124181;27;19930;-73
2021/01/09 00:09:01;;;;;;;;;;;9.40;54.90;;;;;;2124024;27;19931;-75
2021/01/09 00:10:03;;;;;;;;;;;9.40;54.50;;;;;;2124287;27;19923;-77
2021/01/09 00:11:07;;;;;;;;;;;9.40;54.70;;;;;;2124268;27;19927;-75
2021/01/09 00:12:10;;;;;;;;;;;9.40;54.00;;;;;;2124282;27;19935;-75
2021/01/09 00:13:13;;;;;;;;;;;9.40;54.50;;;;;;2124426;27;19938;-76
2021/01/09 00:14:15;;;;;;;;;;;9.40;55.40;;;;;;2124027;27;19923;-75
2021/01/09 00:15:17;;;;;;;;;;;9.50;55.00;;;;;;2123850;27;19938;-74
2021/01/09 00:16:18;;;;;;;;;;;9.50;55.10;;;;;;2117602;27;19946;-74
2021/01/09 00:17:20;;;;;;;;;;;9.60;55.00;;;;;;2115591;28;19931;-77
2021/01/09 00:18:21;;;;;;;;;;;9.60;55.20;;;;;;2115365;28;19923;-74
2021/01/09 00:19:23;;;;;;;;;;;9.70;55.20;;;;;;2115643;28;19924;-75
2021/01/09 00:20:25;;;;;;;;;;;9.70;54.30;;;;;;2115351;28;19923;-76
2021/01/09 00:21:35;;;;;;;;;;;9.70;55.10;;;;;;2119184;28;19931;-75
2021/01/09 00:22:37;;;;;;;;;;;9.80;55.20;;;;;;2123453;28;20287;-77
2021/01/09 00:23:38;;;;;;;;;;;9.80;53.90;;;;;;2124060;28;20163;-76
2021/01/09 00:24:40;;;;;;;;;;;9.90;54.60;;;;;;2123529;28;19946;-74
2021/01/09 00:25:41;;;;;;;;;;;9.80;53.70;;;;;;2114823;28;20303;-74
2021/01/09 00:26:42;;;;;;;;;;;9.90;54.40;;;;;;2114791;28;20391;-75
2021/01/09 00:27:44;;;;;;;;;;;9.90;54.60;;;;;;2117352;28;19923;-72
2021/01/09 00:28:47;;;;;;;;;;;9.90;54.40;;;;;;2114676;28;19927;-71
2021/01/09 00:29:48;;;;;;;;;;;9.90;54.20;;;;;;2115103;28;19946;-72
2021/01/09 00:30:49;;;;;;;;;;;9.80;53.50;;;;;;2114909;28;19924;-72
2021/01/09 00:31:52;;;;;;;;;;;9.90;53.80;;;;;;2105991;28;19924;-74
2021/01/09 00:32:53;;;;;;;;;;;9.80;53.40;;;;;;2106293;28;20312;-75
2021/01/09 00:33:55;;;;;;;;;;;9.80;53.40;;;;;;2115309;28;19934;-76
2021/01/09 00:34:56;;;;;;;;;;;9.70;52.90;;;;;;2115648;28;19928;-76
2021/01/09 00:35:58;;;;;;;;;;;9.70;53.60;;;;;;2115058;28;19931;-76
2021/01/09 00:36:59;;;;;;;;;;;9.70;53.40;;;;;;2115437;28;19924;-76
2021/01/09 00:38:00;;;;;;;;;;;9.70;55.10;;;;;;2115806;28;19924;-76
2021/01/09 00:39:02;;;;;;;;;;;9.90;55.00;;;;;;2115054;28;19923;-74
2021/01/09 00:40:07;;;;;;;;;;;10.00;54.90;;;;;;2115462;28;19986;-75
2021/01/09 00:41:08;;;;;;;;;;;10.00;54.40;;;;;;2115071;28;19923;-76
2021/01/09 00:42:10;;;;;;;;;;;10.10;54.10;;;;;;2114803;28;20395;-76
2021/01/09 00:43:12;;;;;;;;;;;10.10;53.70;;;;;;2114820;28;19931;-76
2021/01/09 00:44:15;;;;;;;;;;;10.20;54.00;;;;;;2115656;28;19923;-74
2021/01/09 00:45:16;;;;;;;;;;;10.20;54.00;;;;;;2116634;28;19935;-76
2021/01/09 00:46:18;;;;;;;;;;;10.30;53.80;;;;;;2116493;28;19924;-75
2021/01/09 00:47:19;;;;;;;;;;;10.40;53.70;;;;;;2116492;28;19923;-75
2021/01/09 00:48:21;;;;;;;;;;;10.40;53.40;;;;;;2116571;28;19999;-75
2021/01/09 00:49:22;;;;;;;;;;;10.40;52.70;;;;;;2116855;28;19931;-75
2021/01/09 00:50:24;;;;;;;;;;;10.40;52.90;;;;;;2116977;28;19947;-75
2021/01/09 00:51:26;;;;;;;;;;;10.40;51.50;;;;;;2116714;28;19927;-76
2021/01/09 00:52:27;;;;;;;;;;;10.30;51.80;;;;;;2116560;28;19945;-77
2021/01/09 00:53:30;;;;;;;;;;;10.20;51.90;;;;;;2107307;28;19928;-73
2021/01/09 00:54:32;;;;;;;;;;;10.20;51.80;;;;;;2103625;28;19928;-70
2021/01/09 00:55:34;;;;;;;;;;;10.20;53.40;;;;;;2115968;27;19923;-70
2021/01/09 00:56:36;;;;;;;;;;;10.20;53.00;;;;;;2124686;27;19931;-72
2021/01/09 00:57:37;;;;;;;;;;;10.30;52.50;;;;;;2124595;27;20393;-70
2021/01/09 00:58:43;;;;;;;;;;;10.30;53.20;;;;;;2115494;28;20392;-72
2021/01/09 00:59:48;;;;;;;;;;;10.40;53.20;;;;;;2108270;28;19928;-73
2021/01/09 01:00:50;;;;;;;;;;;10.40;53.20;;;;;;2116707;27;20018;-72
2021/01/09 01:01:51;;;;;;;;;;;10.50;52.80;;;;;;2124949;27;20287;-71
2021/01/09 01:02:53;;;;;;;;;;;10.60;52.80;;;;;;2124664;27;19924;-71
2021/01/09 01:03:55;;;;;;;;;;;10.60;52.20;;;;;;2125078;27;19924;-73
2021/01/09 01:04:57;;;;;;;;;;;10.70;52.70;;;;;;2124854;27;19927;-70
2021/01/09 01:05:58;;;;;;;;;;;10.70;52.40;;;;;;2125333;27;19923;-72
2021/01/09 01:07:00;;;;;;;;;;;10.70;51.70;;;;;;2124844;27;20383;-73
2021/01/09 01:08:02;;;;;;;;;;;10.60;51.60;;;;;;2125434;27;19945;-77
2021/01/09 01:09:04;;;;;;;;;;;10.60;51.60;;;;;;2126297;27;20019;-77
2021/01/09 01:10:07;;;;;;;;;;;10.60;51.40;;;;;;2126327;27;19927;-77
2021/01/09 01:11:08;;;;;;;;;;;10.50;51.80;;;;;;2125954;27;20351;-77
2021/01/09 01:12:10;;;;;;;;;;;10.50;52.40;;;;;;2125985;27;19923;-77
2021/01/09 01:13:11;;;;;;;;;;;10.60;52.40;;;;;;2125991;27;19923;-77
2021/01/09 01:14:13;;;;;;;;;;;10.70;52.40;;;;;;2126132;27;19923;-76
2021/01/09 01:15:17;;;;;;;;;;;10.70;52.30;;;;;;2126441;27;19975;-78
2021/01/09 01:16:19;;;;;;;;;;;10.80;52.10;;;;;;2120149;27;19924;-76
2021/01/09 01:17:21;;;;;;;;;;;10.80;52.00;;;;;;2117378;28;19931;-75
2021/01/09 01:18:23;;;;;;;;;;;10.80;51.80;;;;;;2118019;28;19924;-70
2021/01/09 01:19:24;;;;;;;;;;;10.80;51.70;;;;;;2116398;28;20082;-70
2021/01/09 01:20:26;;;;;;;;;;;10.80;51.90;;;;;;2116638;28;19935;-72
2021/01/09 01:21:27;;;;;;;;;;;10.90;51.80;;;;;;2116407;28;19924;-70
2021/01/09 01:22:28;;;;;;;;;;;10.90;51.70;;;;;;2116603;28;19931;-71
2021/01/09 01:23:30;;;;;;;;;;;10.90;51.40;;;;;;2116429;28;20291;-70
2021/01/09 01:24:31;;;;;;;;;;;10.90;51.60;;;;;;2116527;28;19931;-70
2021/01/09 01:25:33;;;;;;;;;;;10.90;51.50;;;;;;2116292;28;19931;-70
2021/01/09 01:26:35;;;;;;;;;;;10.90;51.50;;;;;;2107374;28;19932;-72
2021/01/09 01:27:36;;;;;;;;;;;10.90;51.20;;;;;;2111969;28;19939;-71
2021/01/09 01:28:38;;;;;;;;;;;10.90;50.90;;;;;;2124784;27;19923;-71
2021/01/09 01:29:42;;;;;;;;;;;10.90;51.60;;;;;;2124885;27;19923;-71
2021/01/09 01:30:44;;;;;;;;;;;10.80;51.00;;;;;;2125148;27;19924;-71
2021/01/09 01:31:45;;;;;;;;;;;10.80;50.90;;;;;;2124810;27;19928;-70
2021/01/09 01:32:47;;;;;;;;;;;10.80;51.60;;;;;;2124810;27;19923;-70
2021/01/09 01:33:49;;;;;;;;;;;10.80;51.20;;;;;;2124874;27;19933;-72
2021/01/09 01:34:51;;;;;;;;;;;10.80;51.60;;;;;;2125229;27;19958;-71
2021/01/09 01:35:52;;;;;;;;;;;10.90;51.70;;;;;;2124756;27;19924;-71
2021/01/09 01:36:54;;;;;;;;;;;10.80;50.80;;;;;;2125121;27;19931;-71
2021/01/09 01:37:56;;;;;;;;;;;10.80;51.70;;;;;;2125141;27;19931;-73
2021/01/09 01:38:57;;;;;;;;;;;10.90;51.70;;;;;;2125534;27;19923;-77
2021/01/09 01:40:01;;;;;;;;;;;11.00;51.20;;;;;;2126005;27;19931;-77
2021/01/09 01:41:03;;;;;;;;;;;11.00;51.20;;;;;;2125917;27;19923;-77
2021/01/09 01:42:06;;;;;;;;;;;11.00;50.70;;;;;;2126219;27;19992;-75
2021/01/09 01:43:11;;;;;;;;;;;11.00;51.00;;;;;;2126000;27;20407;-76
2021/01/09 01:44:13;;;;;;;;;;;11.00;51.20;;;;;;2126332;27;19924;-75
2021/01/09 01:45:16;;;;;;;;;;;11.00;50.90;;;;;;2125996;27;19958;-75
2021/01/09 01:46:18;;;;;;;;;;;11.00;51.10;;;;;;2124986;27;19923;-75
2021/01/09 01:47:20;;;;;;;;;;;11.00;51.00;;;;;;2125111;27;19924;-77
2021/01/09 01:48:22;;;;;;;;;;;11.10;50.90;;;;;;2124945;27;19930;-77
2021/01/09 01:49:24;;;;;;;;;;;11.10;50.90;;;;;;2121809;27;19924;-70
2021/01/09 01:50:25;;;;;;;;;;;11.10;50.80;;;;;;2115854;28;19934;-71
2021/01/09 01:51:27;;;;;;;;;;;11.00;50.50;;;;;;2116080;28;19928;-70
2021/01/09 01:52:28;;;;;;;;;;;11.10;50.80;;;;;;2116180;28;19931;-72
2021/01/09 01:53:30;;;;;;;;;;;11.00;50.70;;;;;;2115874;28;20304;-72
2021/01/09 01:54:32;;;;;;;;;;;11.10;50.60;;;;;;2120168;27;19923;-72
2021/01/09 01:55:33;;;;;;;;;;;11.10;50.80;;;;;;2123513;27;19923;-69
2021/01/09 01:56:36;;;;;;;;;;;11.10;50.70;;;;;;2124011;27;19971;-71
2021/01/09 01:57:38;;;;;;;;;;;11.10;50.80;;;;;;2124368;27;19924;-71
2021/01/09 01:58:39;;;;;;;;;;;11.10;50.30;;;;;;2124361;27;19924;-70
2021/01/09 01:59:41;;;;;;;;;;;11.10;50.60;;;;;;2124322;27;20398;-72
2021/01/09 02:00:47;;;;;;;;;;;11.10;50.60;;;;;;2124498;27;19931;-69
2021/01/09 02:01:49;;;;;;;;;;;11.10;50.80;;;;;;2126610;27;19923;-72
2021/01/09 02:02:51;;;;;;;;;;;11.10;50.50;;;;;;2126927;27;20376;-77
2021/01/09 02:03:52;;;;;;;;;;;11.10;50.60;;;;;;2127538;27;19931;-72
2021/01/09 02:04:57;;;;;;;;;;;11.20;50.40;;;;;;2126918;27;19924;-74
2021/01/09 02:06:00;;;;;;;;;;;11.10;50.30;;;;;;2126438;27;19973;-73
2021/01/09 02:07:05;;;;;;;;;;;11.10;50.50;;;;;;2122307;27;19924;-74
2021/01/09 02:08:08;;;;;;;;;;;11.10;50.00;;;;;;2119087;28;19984;-74
2021/01/09 02:09:11;;;;;;;;;;;11.10;50.40;;;;;;2118515;28;19923;-70
2021/01/09 02:10:14;;;;;;;;;;;11.10;50.60;;;;;;2117799;28;19924;-70
2021/01/09 02:11:19;;;;;;;;;;;11.10;50.70;;;;;;2117576;28;19924;-74
2021/01/09 02:12:25;;;;;;;;;;;11.10;50.60;;;;;;2117117;28;19943;-70
2021/01/09 02:13:42;;;;;;;;;;;11.10;50.50;;;;;;2116658;28;19924;-75
2021/01/09 02:14:44;;;;;;;;;;;11.10;50.50;;;;;;2116668;28;19950;-71
2021/01/09 02:15:47;;;;;;;;;;;11.10;50.50;;;;;;2119368;27;19924;-71
2021/01/09 02:16:50;;;;;;;;;;;11.00;50.20;;;;;;2126379;27;20059;-71
2021/01/09 02:17:52;;;;;;;;;;;11.00;50.60;;;;;;2125524;27;19924;-75
2021/01/09 02:18:53;;;;;;;;;;;11.00;50.70;;;;;;2125962;27;19931;-71
2021/01/09 02:19:57;;;;;;;;;;;11.00;50.70;;;;;;2125667;27;20355;-70
2021/01/09 02:21:03;;;;;;;;;;;11.00;50.70;;;;;;2125986;27;19923;-69
2021/01/09 02:22:05;;;;;;;;;;;11.00;50.80;;;;;;2117692;28;19924;-71
2021/01/09 02:23:09;;;;;;;;;;;11.00;50.60;;;;;;2117431;28;19927;-70
2021/01/09 02:24:11;;;;;;;;;;;11.00;50.80;;;;;;2117970;28;19935;-70
2021/01/09 02:25:13;;;;;;;;;;;11.00;50.70;;;;;;2118113;28;19924;-70
2021/01/09 02:26:15;;;;;;;;;;;11.00;50.60;;;;;;2109078;28;19924;-71
2021/01/09 02:27:17;;;;;;;;;;;11.00;51.20;;;;;;2104602;28;19936;-71
2021/01/09 02:28:18;;;;;;;;;;;11.00;50.90;;;;;;2117323;28;19924;-71
2021/01/09 02:29:21;;;;;;;;;;;11.00;50.70;;;;;;2116969;28;19924;-72
2021/01/09 02:30:25;;;;;;;;;;;11.10;50.60;;;;;;2117172;28;19924;-70
2021/01/09 02:31:26;;;;;;;;;;;11.00;50.50;;;;;;2117030;28;20235;-73
2021/01/09 02:32:30;;;;;;;;;;;11.10;50.40;;;;;;2117219;28;20284;-73
2021/01/09 02:33:33;;;;;;;;;;;11.00;50.40;;;;;;2108166;28;20419;-70
2021/01/09 02:34:36;;;;;;;;;;;11.10;50.60;;;;;;2108194;28;19924;-73
2021/01/09 02:35:38;;;;;;;;;;;11.00;50.50;;;;;;2100733;28;20369;-70
2021/01/09 02:36:40;;;;;;;;;;;11.00;50.60;;;;;;2110248;28;19924;-70
2021/01/09 02:37:42;;;;;;;;;;;11.00;50.60;;;;;;2119783;28;19924;-73
2021/01/09 02:38:44;;;;;;;;;;;11.10;50.60;;;;;;2119366;28;19924;-72
2021/01/09 02:39:46;;;;;;;;;;;11.10;50.60;;;;;;2110426;28;19934;-70
2021/01/09 02:40:47;;;;;;;;;;;11.00;50.30;;;;;;2109810;28;19971;-76
2021/01/09 02:41:49;;;;;;;;;;;11.00;50.30;;;;;;2118800;28;19931;-71
2021/01/09 02:42:51;;;;;;;;;;;11.00;50.30;;;;;;2118889;28;19924;-74
2021/01/09 02:43:52;;;;;;;;;;;11.00;50.40;;;;;;2118953;28;19923;-72
2021/01/09 02:44:54;;;;;;;;;;;11.10;50.50;;;;;;2118123;28;19924;-73
2021/01/09 02:45:58;;;;;;;;;;;11.10;50.40;;;;;;2118319;28;19928;-72
2021/01/09 02:47:00;;;;;;;;;;;11.10;50.30;;;;;;2118674;28;19924;-75
2021/01/09 02:48:02;;;;;;;;;;;11.10;50.30;;;;;;2118006;28;19924;-73
2021/01/09 02:49:04;;;;;;;;;;;11.10;50.40;;;;;;2116209;28;19928;-72
2021/01/09 02:50:06;;;;;;;;;;;11.10;50.30;;;;;;2115409;28;19931;-70
2021/01/09 02:51:08;;;;;;;;;;;11.10;50.10;;;;;;2115782;28;19923;-77
2021/01/09 02:52:09;;;;;;;;;;;11.10;50.20;;;;;;2115469;28;19924;-77
2021/01/09 02:53:11;;;;;;;;;;;11.00;50.20;;;;;;2115852;28;19928;-77
2021/01/09 02:54:14;;;;;;;;;;;11.10;50.40;;;;;;2115840;28;19992;-77
2021/01/09 02:55:15;;;;;;;;;;;11.00;50.30;;;;;;2115653;28;19984;-76
2021/01/09 02:56:17;;;;;;;;;;;11.10;50.20;;;;;;2115119;28;19931;-75
2021/01/09 02:57:18;;;;;;;;;;;11.00;50.10;;;;;;2115851;28;19923;-78
2021/01/09 02:58:20;;;;;;;;;;;11.00;50.30;;;;;;2115483;28;19924;-74
2021/01/09 02:59:21;;;;;;;;;;;11.00;50.20;;;;;;2115616;28;19924;-77
2021/01/09 03:00:23;;;;;;;;;;;11.00;49.50;;;;;;2116182;28;19924;-76
2021/01/09 03:01:27;;;;;;;;;;;11.00;49.60;;;;;;2118360;28;19930;-70
2021/01/09 03:02:31;;;;;;;;;;;10.90;50.50;;;;;;2119714;28;19923;-70
2021/01/09 03:03:32;;;;;;;;;;;10.80;49.40;;;;;;2119302;28;19923;-75
2021/01/09 03:04:34;;;;;;;;;;;10.80;50.60;;;;;;2119849;28;19931;-77
2021/01/09 03:05:35;;;;;;;;;;;10.80;50.90;;;;;;2119160;28;20090;-77
2021/01/09 03:06:39;;;;;;;;;;;10.80;50.40;;;;;;2119067;28;19924;-75
2021/01/09 03:07:42;;;;;;;;;;;10.90;50.90;;;;;;2119565;28;19924;-74
2021/01/09 03:08:44;;;;;;;;;;;10.90;50.70;;;;;;2119754;28;19924;-74
2021/01/09 03:09:46;;;;;;;;;;;11.00;50.50;;;;;;2119534;28;19924;-76
2021/01/09 03:10:48;;;;;;;;;;;11.00;50.40;;;;;;2119479;28;19931;-74
2021/01/09 03:11:51;;;;;;;;;;;11.10;50.30;;;;;;2119863;28;19946;-75
2021/01/09 03:12:52;;;;;;;;;;;11.00;50.00;;;;;;2119329;28;19931;-77
2021/01/09 03:13:54;;;;;;;;;;;11.00;50.20;;;;;;2120066;28;19924;-78
2021/01/09 03:14:55;;;;;;;;;;;11.10;50.10;;;;;;2119528;28;19930;-75
2021/01/09 03:15:57;;;;;;;;;;;11.10;49.80;;;;;;2116971;28;19924;-78
2021/01/09 03:16:58;;;;;;;;;;;11.10;50.00;;;;;;2116047;28;20425;-77
2021/01/09 03:18:03;;;;;;;;;;;11.00;49.70;;;;;;2115772;28;19975;-76
2021/01/09 03:19:05;;;;;;;;;;;11.00;50.10;;;;;;2115892;28;19924;-77
2021/01/09 03:20:09;;;;;;;;;;;11.10;50.30;;;;;;2114952;28;19982;-78
2021/01/09 03:21:11;;;;;;;;;;;11.10;50.20;;;;;;2114986;28;19935;-74
2021/01/09 03:22:15;;;;;;;;;;;11.10;50.10;;;;;;2115225;28;20039;-71
2021/01/09 03:23:16;;;;;;;;;;;11.10;49.90;;;;;;2115178;28;19927;-72
2021/01/09 03:24:17;;;;;;;;;;;11.20;50.10;;;;;;2115228;28;19924;-72
2021/01/09 03:25:22;;;;;;;;;;;11.20;49.80;;;;;;2115229;28;19924;-71
2021/01/09 03:26:23;;;;;;;;;;;11.20;49.80;;;;;;2115254;28;19931;-73
2021/01/09 03:27:25;;;;;;;;;;;11.20;50.00;;;;;;2118194;27;19930;-70
2021/01/09 03:28:26;;;;;;;;;;;11.20;49.90;;;;;;2123685;27;19927;-74
2021/01/09 03:29:28;;;;;;;;;;;11.20;49.70;;;;;;2124182;27;19923;-71
2021/01/09 03:30:29;;;;;;;;;;;11.30;49.60;;;;;;2123473;27;19923;-73
2021/01/09 03:31:31;;;;;;;;;;;11.30;49.70;;;;;;2123610;27;20168;-71
2021/01/09 03:32:33;;;;;;;;;;;11.30;49.60;;;;;;2123655;27;19924;-69
2021/01/09 03:33:36;;;;;;;;;;;11.30;49.40;;;;;;2123570;27;19923;-72
2021/01/09 03:34:37;;;;;;;;;;;11.30;49.50;;;;;;2123373;27;20491;-71
2021/01/09 03:35:39;;;;;;;;;;;11.30;49.50;;;;;;2123728;27;19931;-73
2021/01/09 03:36:41;;;;;;;;;;;11.30;49.50;;;;;;2123648;27;19923;-71
2021/01/09 03:37:42;;;;;;;;;;;11.30;49.40;;;;;;2123935;27;19923;-77
2021/01/09 03:38:43;;;;;;;;;;;11.30;49.40;;;;;;2124243;27;19946;-77
2021/01/09 03:39:45;;;;;;;;;;;11.30;49.40;;;;;;2124075;27;20295;-75
2021/01/09 03:40:47;;;;;;;;;;;11.30;49.40;;;;;;2123932;27;20116;-78
2021/01/09 03:41:49;;;;;;;;;;;11.30;49.40;;;;;;2124097;27;19924;-77
2021/01/09 03:42:51;;;;;;;;;;;11.20;49.30;;;;;;2124229;27;20209;-77
2021/01/09 03:43:54;;;;;;;;;;;11.20;49.50;;;;;;2123430;27;19932;-76
2021/01/09 03:44:57;;;;;;;;;;;11.20;49.70;;;;;;2124081;27;19924;-77
2021/01/09 03:46:06;;;;;;;;;;;11.20;49.60;;;;;;2123073;27;19931;-78
2021/01/09 03:47:07;;;;;;;;;;;11.20;49.50;;;;;;2123173;27;19924;-72
2021/01/09 03:48:09;;;;;;;;;;;11.20;49.50;;;;;;2123452;27;19967;-73
2021/01/09 03:49:10;;;;;;;;;;;11.20;49.50;;;;;;2121484;27;19927;-71
2021/01/09 03:50:13;;;;;;;;;;;11.20;49.50;;;;;;2114384;28;19932;-69
2021/01/09 03:51:14;;;;;;;;;;;11.20;49.60;;;;;;2115038;28;19923;-71
2021/01/09 03:52:15;;;;;;;;;;;11.20;49.60;;;;;;2115026;28;20364;-73
2021/01/09 03:53:17;;;;;;;;;;;11.20;49.60;;;;;;2114785;28;19927;-72
2021/01/09 03:54:18;;;;;;;;;;;11.20;49.60;;;;;;2117481;27;19924;-71
2021/01/09 03:55:20;;;;;;;;;;;11.20;49.50;;;;;;2123382;27;19941;-71
2021/01/09 03:56:22;;;;;;;;;;;11.20;49.40;;;;;;2123316;27;20272;-71
2021/01/09 03:57:24;;;;;;;;;;;11.20;49.30;;;;;;2123346;27;19923;-72
2021/01/09 03:58:25;;;;;;;;;;;11.20;49.40;;;;;;2122981;27;20382;-74
2021/01/09 03:59:26;;;;;;;;;;;11.20;49.30;;;;;;2123117;27;19928;-69
2021/01/09 04:00:28;;;;;;;;;;;11.20;49.50;;;;;;2123530;27;19924;-73
2021/01/09 04:01:29;;;;;;;;;;;11.20;49.70;;;;;;2122450;27;20384;-70
2021/01/09 04:02:31;;;;;;;;;;;11.20;49.70;;;;;;2122943;27;19935;-71
2021/01/09 04:03:32;;;;;;;;;;;11.20;49.60;;;;;;2122669;27;19923;-73
2021/01/09 04:04:34;;;;;;;;;;;11.20;49.50;;;;;;2122568;27;19950;-72
2021/01/09 04:05:36;;;;;;;;;;;11.20;49.50;;;;;;2123384;27;20275;-74
2021/01/09 04:06:37;;;;;;;;;;;11.30;49.40;;;;;;2123317;27;19930;-71
2021/01/09 04:07:39;;;;;;;;;;;11.30;49.40;;;;;;2119107;27;19923;-70
2021/01/09 04:08:40;;;;;;;;;;;11.20;49.40;;;;;;2114788;28;19924;-71
2021/01/09 04:09:42;;;;;;;;;;;11.30;49.30;;;;;;2114834;28;19931;-71
2021/01/09 04:10:43;;;;;;;;;;;11.30;49.60;;;;;;2114218;28;19924;-69
2021/01/09 04:11:45;;;;;;;;;;;11.30;49.40;;;;;;2115018;28;20360;-70
2021/01/09 04:12:47;;;;;;;;;;;11.30;49.20;;;;;;2114690;28;19927;-71
2021/01/09 04:13:48;;;;;;;;;;;11.30;49.30;;;;;;2114027;28;20286;-70
2021/01/09 04:14:50;;;;;;;;;;;11.20;49.50;;;;;;2114200;28;20287;-72
2021/01/09 04:15:51;;;;;;;;;;;11.20;49.50;;;;;;2116817;27;19928;-70
2021/01/09 04:16:53;;;;;;;;;;;11.20;49.50;;;;;;2123142;27;19923;-72
2021/01/09 04:17:54;;;;;;;;;;;11.20;49.40;;;;;;2123227;27;19927;-74
2021/01/09 04:18:56;;;;;;;;;;;11.30;49.50;;;;;;2122693;27;20061;-72
2021/01/09 04:19:57;;;;;;;;;;;11.30;49.30;;;;;;2123396;28;19924;-72
2021/01/09 04:21:00;;;;;;;;;;;11.20;49.40;;;;;;2122661;27;19924;-73
2021/01/09 04:22:02;;;;;;;;;;;11.30;49.40;;;;;;2114305;28;20158;-75
2021/01/09 04:23:03;;;;;;;;;;;11.20;50.00;;;;;;2114525;28;19934;-74
2021/01/09 04:24:05;;;;;;;;;;;11.30;49.60;;;;;;2114636;28;19928;-73
2021/01/09 04:25:07;;;;;;;;;;;11.20;49.50;;;;;;2115431;28;19927;-74
2021/01/09 04:26:11;;;;;;;;;;;11.20;49.40;;;;;;2116620;28;20384;-76
2021/01/09 04:27:14;;;;;;;;;;;11.20;49.40;;;;;;2120024;28;19924;-73
2021/01/09 04:28:15;;;;;;;;;;;11.20;49.60;;;;;;2126877;28;19923;-74
2021/01/09 04:29:16;;;;;;;;;;;11.20;48.70;;;;;;2126021;28;20295;-74
2021/01/09 04:30:18;;;;;;;;;;;11.20;49.60;;;;;;2126375;28;19923;-71
2021/01/09 04:31:20;;;;;;;;;;;11.20;49.50;;;;;;2126530;28;19923;-70
2021/01/09 04:32:22;;;;;;;;;;;11.20;49.70;;;;;;2126128;28;19923;-72
2021/01/09 04:33:28;;;;;;;;;;;11.20;49.50;;;;;;2125968;28;19948;-76
2021/01/09 04:34:30;;;;;;;;;;;11.20;49.40;;;;;;2127278;28;19931;-74
2021/01/09 04:35:31;;;;;;;;;;;11.20;49.50;;;;;;2127783;28;19943;-75
2021/01/09 04:36:34;;;;;;;;;;;11.00;48.40;;;;;;2127344;28;19968;-75
2021/01/09 04:37:38;;;;;;;;;;;10.90;49.80;;;;;;2126487;28;19945;-75
2021/01/09 04:38:39;;;;;;;;;;;11.00;49.50;;;;;;2126117;27;19923;-70
2021/01/09 04:39:41;;;;;;;;;;;10.90;49.80;;;;;;2124634;28;19924;-70
2021/01/09 04:40:43;;;;;;;;;;;10.90;50.00;;;;;;2124337;28;19965;-74
2021/01/09 04:41:46;;;;;;;;;;;10.90;50.00;;;;;;2124152;28;20311;-74
2021/01/09 04:42:48;;;;;;;;;;;10.90;50.10;;;;;;2124484;28;19923;-73
2021/01/09 04:43:50;;;;;;;;;;;11.00;50.20;;;;;;2125116;28;19924;-77
2021/01/09 04:44:52;;;;;;;;;;;11.00;49.90;;;;;;2124907;27;20196;-74
2021/01/09 04:45:53;;;;;;;;;;;11.00;50.00;;;;;;2125380;27;19923;-74
2021/01/09 04:46:56;;;;;;;;;;;11.10;50.00;;;;;;2125468;28;19923;-71
2021/01/09 04:47:58;;;;;;;;;;;11.10;49.70;;;;;;2125575;27;20193;-73
2021/01/09 04:49:01;;;;;;;;;;;11.00;48.40;;;;;;2125452;28;20376;-71
2021/01/09 04:50:03;;;;;;;;;;;10.60;49.10;;;;;;2117052;28;19924;-76
2021/01/09 04:51:05;;;;;;;;;;;10.70;50.60;;;;;;2117172;28;19924;-77
2021/01/09 04:52:09;;;;;;;;;;;10.70;49.90;;;;;;2117179;28;19924;-70
2021/01/09 04:53:11;;;;;;;;;;;10.60;49.60;;;;;;2116128;28;19976;-73
2021/01/09 04:54:13;;;;;;;;;;;10.70;50.80;;;;;;2117250;28;19935;-70
2021/01/09 04:55:15;;;;;;;;;;;10.70;50.40;;;;;;2123533;27;19924;-69
2021/01/09 04:56:18;;;;;;;;;;;10.80;50.70;;;;;;2124375;28;20036;-70
2021/01/09 04:57:19;;;;;;;;;;;10.80;50.40;;;;;;2124001;28;19930;-71
2021/01/09 04:58:22;;;;;;;;;;;10.90;50.30;;;;;;2123480;27;20418;-73
2021/01/09 04:59:24;;;;;;;;;;;10.90;50.20;;;;;;2124072;28;20406;-74
2021/01/09 05:00:26;;;;;;;;;;;10.90;49.50;;;;;;2125275;27;19923;-75
2021/01/09 05:01:29;;;;;;;;;;;10.90;49.80;;;;;;2125096;27;19923;-74
2021/01/09 05:02:32;;;;;;;;;;;10.90;49.60;;;;;;2125004;27;20406;-77
2021/01/09 05:03:34;;;;;;;;;;;10.90;50.20;;;;;;2125088;27;19931;-76
2021/01/09 05:04:42;;;;;;;;;;;10.90;49.90;;;;;;2124842;28;20415;-75
2021/01/09 05:05:44;;;;;;;;;;;10.90;49.60;;;;;;2124909;27;19924;-76
2021/01/09 05:06:46;;;;;;;;;;;10.80;49.50;;;;;;2123996;28;19930;-76
2021/01/09 05:07:50;;;;;;;;;;;10.70;48.40;;;;;;2123734;28;20427;-76
2021/01/09 05:08:52;;;;;;;;;;;10.70;50.40;;;;;;2123823;27;19923;-76
2021/01/09 05:09:58;;;;;;;;;;;10.80;50.30;;;;;;2123472;28;19924;-71
2021/01/09 05:11:01;;;;;;;;;;;10.80;50.30;;;;;;2123448;28;19923;-71
2021/01/09 05:12:02;;;;;;;;;;;10.90;50.00;;;;;;2123533;27;19923;-74
2021/01/09 05:13:05;;;;;;;;;;;10.90;50.30;;;;;;2123439;27;20180;-71
2021/01/09 05:14:07;;;;;;;;;;;11.00;49.80;;;;;;2123268;27;20001;-71
2021/01/09 05:15:09;;;;;;;;;;;11.00;49.90;;;;;;2123261;27;19923;-70
2021/01/09 05:16:12;;;;;;;;;;;10.90;47.60;;;;;;2118127;28;19924;-71
2021/01/09 05:17:14;;;;;;;;;;;10.90;49.70;;;;;;2114585;28;20295;-70
2021/01/09 05:18:16;;;;;;;;;;;10.90;49.70;;;;;;2114878;28;19930;-76
2021/01/09 05:19:18;;;;;;;;;;;10.90;49.90;;;;;;2115088;28;19923;-70
2021/01/09 05:20:20;;;;;;;;;;;10.90;49.90;;;;;;2114714;28;19924;-71
2021/01/09 05:21:22;;;;;;;;;;;10.70;46.70;;;;;;2114615;28;19924;-71
2021/01/09 05:22:24;;;;;;;;;;;10.50;49.20;;;;;;2114848;28;19924;-72
2021/01/09 05:23:27;;;;;;;;;;;10.60;49.40;;;;;;2114961;28;19930;-71
2021/01/09 05:24:28;;;;;;;;;;;10.40;48.60;;;;;;2114759;28;19924;-71
2021/01/09 05:25:30;;;;;;;;;;;10.40;49.70;;;;;;2114849;28;20303;-71
2021/01/09 05:26:31;;;;;;;;;;;10.30;48.50;;;;;;2114784;28;20393;-72
2021/01/09 05:27:34;;;;;;;;;;;10.00;48.40;;;;;;2119165;28;19976;-76
2021/01/09 05:28:36;;;;;;;;;;;9.70;49.50;;;;;;2123265;28;19923;-74
2021/01/09 05:29:38;;;;;;;;;;;9.70;51.40;;;;;;2123267;27;19927;-74
2021/01/09 05:30:41;;;;;;;;;;;9.70;51.40;;;;;;2124979;27;19923;-69
2021/01/09 05:31:42;;;;;;;;;;;9.60;49.90;;;;;;2124769;27;19924;-71
2021/01/09 05:32:44;;;;;;;;;;;9.60;51.50;;;;;;2124797;27;19923;-73
2021/01/09 05:33:45;;;;;;;;;;;9.60;50.60;;;;;;2124667;27;20300;-70
2021/01/09 05:34:47;;;;;;;;;;;9.40;50.60;;;;;;2124841;27;20360;-74
2021/01/09 05:35:49;;;;;;;;;;;9.20;50.50;;;;;;2125780;27;20511;-77
2021/01/09 05:36:50;;;;;;;;;;;9.10;52.00;;;;;;2125231;27;19930;-73
2021/01/09 05:37:52;;;;;;;;;;;9.00;52.50;;;;;;2125063;27;20085;-77
2021/01/09 05:38:55;;;;;;;;;;;8.80;51.80;;;;;;2124990;27;19935;-75
2021/01/09 05:39:57;;;;;;;;;;;8.90;54.60;;;;;;2125072;27;19934;-76
2021/01/09 05:41:02;;;;;;;;;;;8.80;53.40;;;;;;2124927;27;20280;-75
2021/01/09 05:42:04;;;;;;;;;;;8.70;52.90;;;;;;2124895;27;19927;-75
2021/01/09 05:43:08;;;;;;;;;;;8.70;53.60;;;;;;2125174;27;19930;-76
2021/01/09 05:44:10;;;;;;;;;;;8.40;53.70;;;;;;2125035;27;19924;-77
2021/01/09 05:45:13;;;;;;;;;;;8.20;53.40;;;;;;2124678;27;20283;-70
2021/01/09 05:46:15;;;;;;;;;;;8.20;53.40;;;;;;2123992;27;19931;-69
2021/01/09 05:47:17;;;;;;;;;;;8.00;54.10;;;;;;2124243;27;20485;-72
2021/01/09 05:48:19;;;;;;;;;;;8.00;55.60;;;;;;2124766;27;19958;-72
2021/01/09 05:49:27;;;;;;;;;;;8.00;55.00;;;;;;2121783;27;19924;-70
2021/01/09 05:50:29;;;;;;;;;;;8.00;55.30;;;;;;2116097;28;19924;-71
2021/01/09 05:51:31;;;;;;;;;;;7.80;54.50;;;;;;2116173;28;19924;-71
2021/01/09 05:52:36;;;;;;;;;;;7.60;55.90;;;;;;2115936;28;20368;-70
2021/01/09 05:53:41;;;;;;;;;;;7.40;55.90;;;;;;2115814;28;20398;-73
2021/01/09 05:54:43;;;;;;;;;;;7.30;56.40;;;;;;2122040;27;19950;-72
2021/01/09 05:55:46;;;;;;;;;;;7.30;57.00;;;;;;2124326;27;19923;-70
2021/01/09 05:56:47;;;;;;;;;;;7.30;56.40;;;;;;2124448;27;19931;-72
2021/01/09 05:57:50;;;;;;;;;;;7.20;57.10;;;;;;2124194;27;19923;-71
2021/01/09 05:58:52;;;;;;;;;;;7.00;57.30;;;;;;2124512;27;19950;-70
2021/01/09 05:59:56;;;;;;;;;;;6.70;57.90;;;;;;2124271;27;20364;-73
2021/01/09 06:01:02;;;;;;;;;;;6.60;58.80;;;;;;2124568;27;19924;-69
2021/01/09 06:02:04;;;;;;;;;;;6.70;60.40;;;;;;2124433;27;20299;-72
2021/01/09 06:03:10;;;;;;;;;;;6.70;58.40;;;;;;2124391;27;19924;-72